Time;durP1;ratioP1;P1;durP2;ratioP2;P2;SDS_P1;SDS_P2;PMS_P1;PMS_P2;Temp;Humidity;BMP_temperature;BMP_pressure;BME280_temperature;BME280_humidity;BME280_pressure;Samples;Min_cycle;Max_cycle;Signal;HPM_P1;HPM_P2
2022/02/03 00:01:19;;;;;;;12.75;3.53;;;3.40;99.90;;;;;;5033628;28;20217;-58
2022/02/03 00:03:51;;;;;;;11.15;4.00;;;3.40;99.90;;;;;;5033216;28;20178;-56
2022/02/03 00:06:30;;;;;;;12.98;3.13;;;3.40;99.90;;;;;;5033433;28;20222;-58
2022/02/03 00:09:18;;;;;;;10.75;3.38;;;3.40;99.90;;;;;;5033315;28;20281;-57
2022/02/03 00:22:57;;;;;;;9.65;3.58;;;3.50;99.90;;;;;;5033411;28;20228;-57
2022/02/03 00:25:30;;;;;;;9.55;3.35;;;3.50;99.90;;;;;;5036198;28;20309;-57
2022/02/03 00:28:06;;;;;;;9.52;2.90;;;3.60;99.90;;;;;;5040607;28;20229;-57
2022/02/03 00:30:46;;;;;;;10.57;3.50;;;3.60;99.90;;;;;;5037990;28;20188;-57
2022/02/03 00:33:21;;;;;;;11.13;3.35;;;3.60;99.90;;;;;;5037544;28;20210;-57
2022/02/03 00:48:13;;;;;;;13.65;4.43;;;3.70;99.90;;;;;;5037155;28;20262;-57
2022/02/03 00:49:55;;;;;;;7.93;3.15;;;3.70;99.90;;;;;;5037285;28;20650;-57
2022/02/03 00:52:23;;;;;;;10.27;4.00;;;3.70;99.90;;;;;;5038203;28;20246;-57
2022/02/03 00:54:52;;;;;;;8.65;3.30;;;3.70;99.90;;;;;;5038043;28;20206;-57
2022/02/03 00:57:29;;;;;;;14.57;3.30;;;3.70;99.90;;;;;;5037419;28;20225;-57
2022/02/03 01:00:00;;;;;;;7.55;3.95;;;3.70;99.90;;;;;;5037852;28;20193;-57
2022/02/03 01:02:30;;;;;;;10.43;3.75;;;3.70;99.90;;;;;;5038053;28;20183;-56
2022/02/03 01:05:02;;;;;;;6.40;3.05;;;3.70;99.90;;;;;;5037019;28;20198;-57
2022/02/03 01:07:34;;;;;;;7.00;3.20;;;3.70;99.90;;;;;;5036319;28;20222;-57
2022/02/03 01:10:10;;;;;;;11.07;3.28;;;3.70;99.90;;;;;;5036348;28;20665;-57
2022/02/03 01:12:47;;;;;;;12.30;3.35;;;3.80;99.90;;;;;;5036474;28;20216;-57
2022/02/03 01:15:22;;;;;;;10.70;3.55;;;3.70;99.90;;;;;;5036451;28;20195;-57
2022/02/03 01:18:03;;;;;;;10.23;4.15;;;3.80;99.90;;;;;;5036407;28;20253;-57
2022/02/03 01:37:22;;;;;;;8.45;3.00;;;4.00;99.90;;;;;;5029307;28;20260;-57
2022/02/03 01:45:50;;;;;;;6.22;3.05;;;4.00;99.90;;;;;;5032823;28;20199;-56
2022/02/03 01:48:34;;;;;;;10.93;3.30;;;4.00;99.90;;;;;;5036474;28;20193;-57
2022/02/03 01:53:46;;;;;;;5.13;3.10;;;4.10;99.90;;;;;;5035986;28;20217;-57
2022/02/03 01:56:17;;;;;;;8.50;3.35;;;4.10;99.90;;;;;;5035564;28;20222;-57
2022/02/03 01:58:54;;;;;;;5.75;2.80;;;4.20;99.90;;;;;;5036083;28;20237;-57
2022/02/03 02:01:25;;;;;;;11.95;3.65;;;4.20;99.90;;;;;;5036397;28;20194;-57
2022/02/03 02:04:03;;;;;;;10.00;4.00;;;4.30;99.90;;;;;;5035568;28;20183;-57
2022/02/03 02:07:00;;;;;;;10.50;3.70;;;4.30;99.90;;;;;;5035786;28;20257;-57
2022/02/03 02:09:45;;;;;;;15.63;3.50;;;4.40;99.90;;;;;;5035825;28;20198;-57
2022/02/03 02:12:27;;;;;;;9.75;3.80;;;4.40;99.90;;;;;;5036022;28;20191;-57
2022/02/03 02:15:31;;;;;;;12.90;3.83;;;4.40;99.90;;;;;;5035087;28;20197;-57
2022/02/03 02:18:21;;;;;;;10.38;3.50;;;4.50;99.90;;;;;;5035433;28;20218;-57
2022/02/03 02:37:55;;;;;;;13.63;3.92;;;4.70;99.90;;;;;;5034859;28;20244;-57
2022/02/03 02:43:22;;;;;;;18.88;4.35;;;4.70;99.90;;;;;;5034402;28;20197;-56
2022/02/03 02:45:54;;;;;;;14.27;4.22;;;4.70;99.90;;;;;;5034568;28;20186;-56
2022/02/03 02:48:53;;;;;;;10.15;3.95;;;4.70;99.90;;;;;;5033831;28;20214;-56
2022/02/03 02:51:29;;;;;;;13.20;5.38;;;4.80;99.90;;;;;;5034600;28;20655;-56
2022/02/03 02:57:12;;;;;;;14.13;5.10;;;4.80;99.90;;;;;;5091647;27;20932;-58
2022/02/03 03:00:32;;;;;;;20.35;4.53;;;4.80;99.90;;;;;;5091580;28;20200;-57
2022/02/03 03:31:04;;;;;;;15.85;5.68;;;4.80;99.90;;;;;;5090774;28;20270;-57
2022/02/03 03:33:40;;;;;;;17.73;6.13;;;4.80;99.90;;;;;;5090453;28;20640;-57
2022/02/03 03:36:12;;;;;;;15.68;5.07;;;4.80;99.90;;;;;;5089859;28;20311;-57
2022/02/03 03:38:42;;;;;;;11.60;5.30;;;4.80;99.90;;;;;;5090970;28;20185;-57
2022/02/03 03:41:14;;;;;;;15.73;5.60;;;4.80;99.90;;;;;;5091666;28;20208;-57
2022/02/03 03:43:43;;;;;;;16.58;6.20;;;4.80;99.90;;;;;;5090941;28;20191;-57
2022/02/03 03:46:16;;;;;;;20.65;5.90;;;4.80;99.90;;;;;;5089589;28;20216;-57
2022/02/03 03:49:02;;;;;;;22.15;6.28;;;4.70;99.90;;;;;;5090186;28;20201;-57
2022/02/03 03:51:36;;;;;;;14.52;6.25;;;4.70;99.90;;;;;;5089982;28;20181;-57
2022/02/03 03:54:10;;;;;;;14.63;6.50;;;4.70;99.90;;;;;;5090056;28;20192;-57
2022/02/03 03:56:52;;;;;;;18.30;7.45;;;4.70;99.90;;;;;;5089472;28;20709;-56
2022/02/03 04:32:52;;;;;;;26.38;11.25;;;4.80;99.90;;;;;;5084310;28;20555;-57
2022/02/03 04:38:36;;;;;;;26.70;9.55;;;4.90;99.90;;;;;;5053798;28;20196;-57
2022/02/03 04:59:31;;;;;;;16.27;8.38;;;5.10;99.90;;;;;;5046578;28;20724;-58
2022/02/03 05:02:21;;;;;;;15.63;9.55;;;5.10;99.90;;;;;;5049543;28;20201;-59
2022/02/03 05:05:11;;;;;;;14.57;8.95;;;5.20;99.90;;;;;;5049924;28;20265;-59
2022/02/03 05:08:24;;;;;;;19.85;9.02;;;5.20;99.90;;;;;;5049698;28;20295;-60
2022/02/03 05:11:17;;;;;;;11.45;7.60;;;5.20;99.90;;;;;;5049562;28;20206;-60
2022/02/03 05:14:24;;;;;;;13.98;8.77;;;5.20;99.90;;;;;;5049202;28;20256;-59
2022/02/03 05:32:21;;;;;;;14.63;7.38;;;5.40;99.90;;;;;;5035560;28;20209;-60
2022/02/03 05:41:59;;;;;;;11.93;7.75;;;5.40;99.90;;;;;;5035467;28;20682;-59
2022/02/03 05:44:16;;;;;;;11.70;6.95;;;5.50;99.90;;;;;;5035614;28;20197;-59
2022/02/03 05:46:55;;;;;;;10.30;6.45;;;5.50;99.90;;;;;;5039401;28;20230;-59
2022/02/03 05:49:51;;;;;;;9.43;6.28;;;5.50;99.90;;;;;;5039280;28;20261;-60
2022/02/03 05:55:34;;;;;;;6.85;6.05;;;5.60;99.90;;;;;;5037197;28;20551;-60
2022/02/03 06:07:06;;;;;;;9.75;6.78;;;5.70;99.90;;;;;;5013199;28;20211;-60
2022/02/03 06:09:57;;;;;;;8.45;7.40;;;5.70;99.90;;;;;;5033962;28;20257;-59
2022/02/03 06:15:14;;;;;;;12.40;8.77;;;5.80;99.90;;;;;;5036640;28;20202;-58
2022/02/03 06:20:41;;;;;;;12.93;8.25;;;5.80;99.90;;;;;;5035291;28;20257;-60
2022/02/03 06:23:53;;;;;;;12.55;8.38;;;5.90;99.90;;;;;;5033815;28;20217;-59
2022/02/03 06:29:09;;;;;;;15.07;11.15;;;5.90;99.90;;;;;;5039915;28;20677;-60
2022/02/03 06:31:37;;;;;;;17.23;10.30;;;5.90;99.90;;;;;;5036851;28;20256;-60
2022/02/03 06:34:04;;;;;;;15.63;10.13;;;6.00;99.90;;;;;;5035562;28;20293;-59
2022/02/03 06:36:32;;;;;;;14.00;10.52;;;6.00;99.90;;;;;;5034604;28;20733;-59
2022/02/03 06:39:01;;;;;;;17.67;12.63;;;6.10;99.90;;;;;;5034965;28;20203;-58
2022/02/03 06:41:28;;;;;;;13.85;11.25;;;6.10;99.90;;;;;;5035068;28;20229;-58
2022/02/03 06:43:56;;;;;;;16.77;12.15;;;6.10;99.90;;;;;;5035322;28;20228;-59
2022/02/03 06:46:26;;;;;;;25.92;17.63;;;6.10;99.90;;;;;;5035495;28;20280;-59
2022/02/03 06:49:06;;;;;;;14.80;11.15;;;6.20;99.90;;;;;;5035534;28;20292;-59
2022/02/03 06:51:37;;;;;;;17.95;11.75;;;6.20;99.90;;;;;;5034893;28;20206;-59
2022/02/03 06:54:16;;;;;;;16.25;12.27;;;6.20;99.90;;;;;;5035023;28;20214;-59
2022/02/03 06:56:50;;;;;;;15.93;11.95;;;6.20;99.90;;;;;;5035153;28;20666;-58
2022/02/03 06:59:24;;;;;;;17.05;11.88;;;6.20;99.90;;;;;;5035134;28;20186;-58
2022/02/03 07:01:51;;;;;;;18.90;12.38;;;6.30;99.90;;;;;;5034152;28;20209;-59
2022/02/03 07:04:22;;;;;;;16.38;11.70;;;6.30;99.90;;;;;;5034677;28;20659;-59
2022/02/03 07:06:49;;;;;;;19.85;11.13;;;6.40;99.90;;;;;;5034588;28;20237;-58
2022/02/03 07:09:18;;;;;;;15.45;10.63;;;6.30;99.90;;;;;;5034189;28;20230;-60
2022/02/03 07:11:45;;;;;;;16.08;11.00;;;6.40;99.90;;;;;;5034356;28;20198;-59
2022/02/03 07:14:13;;;;;;;13.48;10.75;;;6.40;99.90;;;;;;5034780;28;20210;-59
2022/02/03 07:16:47;;;;;;;16.65;12.07;;;6.40;99.90;;;;;;5034431;28;20226;-59
2022/02/03 07:19:14;;;;;;;14.45;10.25;;;6.40;99.90;;;;;;5035383;28;20198;-60
2022/02/03 07:21:42;;;;;;;17.02;12.32;;;6.40;99.90;;;;;;5034931;28;20293;-59
2022/02/03 07:24:09;;;;;;;15.32;11.77;;;6.40;99.90;;;;;;5034684;28;20206;-60
2022/02/03 07:26:37;;;;;;;16.98;11.70;;;6.40;99.90;;;;;;5034880;28;20226;-59
2022/02/03 07:29:05;;;;;;;18.05;11.45;;;6.50;99.90;;;;;;5034196;28;20218;-61
2022/02/03 07:31:32;;;;;;;15.75;12.15;;;6.50;99.90;;;;;;5033708;28;20692;-60
2022/02/03 07:34:09;;;;;;;17.67;11.57;;;6.50;99.90;;;;;;5033864;28;20289;-59
2022/02/03 07:36:36;;;;;;;18.10;11.38;;;6.50;99.90;;;;;;5033394;28;20232;-59
2022/02/03 07:39:04;;;;;;;16.40;11.75;;;6.60;99.90;;;;;;5033599;28;20209;-59
2022/02/03 07:41:31;;;;;;;15.85;12.13;;;6.60;99.90;;;;;;5034343;28;20264;-59
2022/02/03 07:44:00;;;;;;;16.90;11.15;;;6.60;99.90;;;;;;5033743;28;20610;-59
2022/02/03 07:46:30;;;;;;;14.77;10.90;;;6.60;99.90;;;;;;5033693;28;20240;-60
2022/02/03 07:48:57;;;;;;;15.75;11.20;;;6.60;99.90;;;;;;5034132;28;20257;-59
2022/02/03 07:51:25;;;;;;;15.25;11.82;;;6.70;99.90;;;;;;5033842;28;20225;-59
2022/02/03 07:53:53;;;;;;;18.27;11.90;;;6.70;99.90;;;;;;5034226;28;20202;-59
2022/02/03 07:56:20;;;;;;;19.13;12.20;;;6.70;99.90;;;;;;5033734;28;20226;-58
2022/02/03 07:58:47;;;;;;;19.70;12.55;;;6.80;99.90;;;;;;5033803;28;20209;-60
2022/02/03 08:01:16;;;;;;;20.20;12.45;;;6.80;99.90;;;;;;5034058;28;20206;-59
2022/02/03 08:03:45;;;;;;;17.75;12.80;;;6.80;99.90;;;;;;5033348;28;20289;-59
2022/02/03 08:06:17;;;;;;;22.08;13.82;;;6.80;99.90;;;;;;5033638;28;20206;-59
2022/02/03 08:08:48;;;;;;;20.00;14.45;;;6.90;99.90;;;;;;5034079;28;20674;-60
2022/02/03 08:11:20;;;;;;;21.02;13.98;;;6.90;99.90;;;;;;5033298;28;20206;-59
2022/02/03 08:13:54;;;;;;;23.58;14.32;;;6.90;99.90;;;;;;5033719;28;20220;-60
2022/02/03 08:16:28;;;;;;;23.45;15.70;;;7.00;99.90;;;;;;5034047;28;20229;-59
2022/02/03 08:18:58;;;;;;;26.10;16.55;;;7.00;99.90;;;;;;5033637;28;20187;-58
2022/02/03 08:21:25;;;;;;;26.17;15.65;;;7.10;99.90;;;;;;5032936;28;20666;-60
2022/02/03 08:24:16;;;;;;;23.48;14.73;;;7.10;99.90;;;;;;5033720;28;20230;-59
2022/02/03 08:27:03;;;;;;;25.35;14.73;;;7.10;99.90;;;;;;5033677;28;20226;-61
2022/02/03 08:32:22;;;;;;;18.08;12.77;;;7.20;99.90;;;;;;5033772;28;20514;-60
2022/02/03 08:37:46;;;;;;;20.85;13.38;;;7.20;99.90;;;;;;5022708;28;20686;-60
2022/02/03 08:40:23;;;;;;;20.23;14.30;;;7.20;99.90;;;;;;5033932;28;20599;-60
2022/02/03 08:42:51;;;;;;;22.25;13.60;;;7.30;99.90;;;;;;5033979;28;20230;-60
2022/02/03 08:45:18;;;;;;;21.77;14.75;;;7.20;99.90;;;;;;5036300;28;20663;-60
2022/02/03 08:47:47;;;;;;;17.05;12.80;;;7.20;99.90;;;;;;5036681;28;20225;-62
2022/02/03 08:50:14;;;;;;;19.63;13.45;;;7.30;99.90;;;;;;5037567;28;20309;-59
2022/02/03 08:52:52;;;;;;;20.00;13.27;;;7.30;99.90;;;;;;5038278;28;20260;-60
2022/02/03 08:55:26;;;;;;;20.77;13.73;;;7.30;99.90;;;;;;5039996;28;20244;-59
2022/02/03 09:37:10;;;;;;;17.63;11.77;;;8.00;99.90;;;;;;5017792;28;20389;-60
2022/02/03 09:56:53;;;;;;;18.15;12.15;;;8.20;99.90;;;;;;5037924;28;20304;-59
2022/02/03 09:59:21;;;;;;;20.27;13.23;;;8.30;99.90;;;;;;5036275;28;20309;-60
2022/02/03 10:01:54;;;;;;;16.48;11.98;;;8.30;99.90;;;;;;5036087;28;20198;-59
2022/02/03 10:04:43;;;;;;;21.45;14.82;;;8.40;99.90;;;;;;5036341;28;20186;-59
2022/02/03 10:07:16;;;;;;;17.35;12.70;;;8.30;99.90;;;;;;5036877;28;20303;-59
2022/02/03 10:09:46;;;;;;;18.73;13.38;;;8.30;99.90;;;;;;5036246;28;20225;-61
2022/02/03 10:12:14;;;;;;;16.63;12.13;;;8.30;99.90;;;;;;5036689;28;20298;-61
2022/02/03 10:14:44;;;;;;;15.70;12.25;;;8.40;99.90;;;;;;5036235;28;20228;-58
2022/02/03 10:17:12;;;;;;;17.02;12.55;;;8.40;99.90;;;;;;5035966;28;20636;-60
2022/02/03 10:19:42;;;;;;;15.77;11.38;;;8.40;99.90;;;;;;5035730;28;20237;-60
2022/02/03 10:22:15;;;;;;;17.58;12.13;;;8.40;99.90;;;;;;5036519;28;20259;-60
2022/02/03 10:24:47;;;;;;;17.77;13.25;;;8.40;99.90;;;;;;5035532;28;20214;-60
2022/02/03 10:27:29;;;;;;;18.10;12.60;;;8.40;99.90;;;;;;5034878;28;20697;-60
2022/02/03 10:30:22;;;;;;;18.75;11.30;;;8.40;99.90;;;;;;5034672;28;20222;-58
2022/02/03 10:32:51;;;;;;;22.75;16.33;;;8.50;99.90;;;;;;5035614;28;20240;-60
2022/02/03 10:35:26;;;;;;;16.27;12.18;;;8.50;99.90;;;;;;5035250;28;20260;-60
2022/02/03 10:41:39;;;;;;;16.77;12.43;;;8.50;99.90;;;;;;5034815;28;20214;-60
2022/02/03 10:44:27;;;;;;;21.55;14.77;;;8.50;99.90;;;;;;5034148;28;20293;-60
2022/02/03 10:47:37;;;;;;;24.42;16.55;;;8.40;99.90;;;;;;5034186;28;20238;-59
2022/02/03 10:50:18;;;;;;;29.50;19.52;;;8.40;99.90;;;;;;5034068;28;20221;-58
2022/02/03 10:53:04;;;;;;;27.30;18.77;;;8.30;99.90;;;;;;5034101;28;20237;-59
2022/02/03 10:58:45;;;;;;;32.42;20.65;;;8.30;99.90;;;;;;5034939;28;20210;-59
2022/02/03 11:01:36;;;;;;;30.92;20.63;;;8.20;99.90;;;;;;5033691;28;20242;-56
2022/02/03 11:06:58;;;;;;;30.40;19.38;;;8.10;99.90;;;;;;5033099;28;20226;-60
2022/02/03 11:09:38;;;;;;;25.80;18.33;;;8.20;99.90;;;;;;5033482;28;20697;-61
2022/02/03 11:12:10;;;;;;;28.38;20.23;;;8.20;99.90;;;;;;5034392;28;20194;-60
2022/02/03 11:14:38;;;;;;;25.75;18.15;;;8.20;99.90;;;;;;5033916;28;20202;-60
2022/02/03 11:17:08;;;;;;;26.33;18.67;;;8.20;99.90;;;;;;5033838;28;20222;-59
2022/02/03 11:19:38;;;;;;;19.63;14.25;;;8.10;99.90;;;;;;5033726;28;20245;-60
2022/02/03 11:22:10;;;;;;;19.40;14.38;;;8.10;99.90;;;;;;5033266;28;20198;-58
2022/02/03 11:24:42;;;;;;;21.73;15.50;;;8.10;99.90;;;;;;5033468;28;20656;-60
2022/02/03 11:27:20;;;;;;;22.55;14.70;;;8.20;99.90;;;;;;5033115;28;20233;-59
2022/02/03 11:36:38;;;;;;;19.55;15.35;;;8.20;99.90;;;;;;5022557;28;20208;-60
2022/02/03 11:45:28;;;;;;;25.67;18.33;;;8.20;99.90;;;;;;4997810;28;20198;-59
2022/02/03 11:57:13;;;;;;;24.40;19.02;;;8.20;99.90;;;;;;5033857;28;20217;-56
2022/02/03 12:02:53;;;;;;;24.73;18.27;;;8.30;99.90;;;;;;5012956;28;20200;-60
2022/02/03 12:17:24;;;;;;;24.38;16.48;;;8.50;99.90;;;;;;5022096;28;20210;-59
2022/02/03 12:20:06;;;;;;;14.35;11.52;;;8.60;99.90;;;;;;5068555;22;20317;-58
2022/02/03 12:25:35;;;;;;;20.73;12.55;;;8.60;99.90;;;;;;5033436;28;20178;-58
2022/02/03 12:28:15;;;;;;;16.42;11.48;;;8.60;99.90;;;;;;5032757;28;20197;-58
2022/02/03 12:31:05;;;;;;;16.73;11.98;;;8.60;99.90;;;;;;5035749;28;20226;-58
2022/02/03 12:39:09;;;;;;;16.80;10.73;;;8.50;99.90;;;;;;5036736;28;20384;-57
2022/02/03 12:41:41;;;;;;;14.93;10.77;;;8.50;99.90;;;;;;5036735;28;20566;-58
2022/02/03 12:44:15;;;;;;;15.07;12.15;;;8.50;99.90;;;;;;5036943;28;20666;-57
2022/02/03 12:46:43;;;;;;;15.43;11.63;;;8.60;99.90;;;;;;5036699;28;20190;-57
2022/02/03 12:49:10;;;;;;;14.60;11.15;;;8.60;99.90;;;;;;5036557;28;20222;-58
2022/02/03 12:51:37;;;;;;;14.63;10.93;;;8.60;99.90;;;;;;5036157;28;20212;-58
2022/02/03 12:54:12;;;;;;;13.10;11.30;;;8.60;99.90;;;;;;5036588;28;20609;-58
2022/02/03 12:56:41;;;;;;;15.15;11.23;;;8.60;99.90;;;;;;5036149;28;20216;-58
2022/02/03 12:59:11;;;;;;;18.15;12.95;;;8.60;99.90;;;;;;5035964;28;20198;-58
2022/02/03 13:01:40;;;;;;;16.20;11.27;;;8.60;99.90;;;;;;5036269;28;20214;-58
2022/02/03 13:04:12;;;;;;;15.43;11.75;;;8.60;99.90;;;;;;5036108;28;20229;-58
2022/02/03 13:06:45;;;;;;;14.10;11.90;;;8.60;99.90;;;;;;5036387;28;20205;-58
2022/02/03 13:09:13;;;;;;;15.43;11.55;;;8.60;99.90;;;;;;5036289;28;20211;-58
2022/02/03 13:11:45;;;;;;;15.55;11.95;;;8.60;99.90;;;;;;5035969;28;20202;-58
2022/02/03 13:14:27;;;;;;;14.55;11.32;;;8.60;99.90;;;;;;5036762;28;20543;-56
2022/02/03 13:17:01;;;;;;;15.65;11.35;;;8.60;99.90;;;;;;5036063;28;20281;-57
2022/02/03 13:19:39;;;;;;;14.93;11.70;;;8.60;99.90;;;;;;5035883;28;20252;-58
2022/02/03 13:22:13;;;;;;;16.42;12.02;;;8.60;99.90;;;;;;5037156;28;20670;-57
2022/02/03 13:25:01;;;;;;;14.75;10.73;;;8.60;99.90;;;;;;5037233;28;20183;-58
2022/02/03 13:27:37;;;;;;;16.13;11.52;;;8.60;99.90;;;;;;5037563;28;20187;-57
2022/02/03 13:30:10;;;;;;;13.65;10.93;;;8.60;99.90;;;;;;5036718;28;20753;-57
2022/02/03 13:32:44;;;;;;;14.20;10.77;;;8.60;99.90;;;;;;5036610;28;20634;-57
2022/02/03 13:35:25;;;;;;;16.13;11.25;;;8.60;99.90;;;;;;5036397;28;20269;-57
2022/02/03 13:37:55;;;;;;;13.90;9.98;;;8.60;99.90;;;;;;5036189;28;20186;-58
2022/02/03 13:40:26;;;;;;;12.15;10.85;;;8.60;99.90;;;;;;5035276;28;20639;-57
2022/02/03 13:43:02;;;;;;;11.77;9.75;;;8.60;99.90;;;;;;5036413;28;20270;-57
2022/02/03 13:45:29;;;;;;;14.70;10.32;;;8.60;99.90;;;;;;5036634;28;20194;-57
2022/02/03 13:47:56;;;;;;;13.15;10.15;;;8.60;99.90;;;;;;5036400;28;20217;-57
2022/02/03 13:50:26;;;;;;;12.65;9.98;;;8.60;99.90;;;;;;5037179;28;20222;-57
2022/02/03 13:53:00;;;;;;;12.10;9.45;;;8.60;99.90;;;;;;5036068;28;20204;-57
2022/02/03 14:15:09;;;;;;;13.15;9.75;;;8.60;99.90;;;;;;5024541;28;20565;-57
2022/02/03 14:20:40;;;;;;;12.00;9.65;;;8.60;99.90;;;;;;5026152;28;20268;-58
2022/02/03 14:28:51;;;;;;;13.15;10.65;;;8.50;99.90;;;;;;4993474;28;20318;-58
2022/02/03 14:31:20;;;;;;;11.68;9.63;;;8.50;99.90;;;;;;5016462;28;20234;-58
2022/02/03 14:33:47;;;;;;;11.85;10.02;;;8.40;99.90;;;;;;5034405;28;20688;-55
2022/02/03 14:36:17;;;;;;;11.30;9.75;;;8.40;99.90;;;;;;5034407;28;20670;-58
2022/02/03 14:38:52;;;;;;;12.63;10.80;;;8.40;99.90;;;;;;5034388;28;20187;-56
2022/02/03 14:41:24;;;;;;;15.23;9.60;;;8.40;99.90;;;;;;5034721;28;20214;-58
2022/02/03 14:43:53;;;;;;;10.43;9.25;;;8.40;99.90;;;;;;5035421;28;20198;-58
2022/02/03 14:46:21;;;;;;;11.38;9.57;;;8.40;99.90;;;;;;5034815;28;20315;-57
2022/02/03 14:48:49;;;;;;;12.60;9.88;;;8.40;99.90;;;;;;5034461;28;20198;-63
2022/02/03 14:51:21;;;;;;;12.40;10.95;;;8.40;99.90;;;;;;5033855;28;20318;-58
2022/02/03 14:53:53;;;;;;;13.25;9.85;;;8.40;99.90;;;;;;5034199;28;20730;-58
2022/02/03 14:59:05;;;;;;;14.88;11.68;;;8.30;99.90;;;;;;5034269;28;20178;-57
2022/02/03 15:01:34;;;;;;;13.75;11.18;;;8.30;99.90;;;;;;5034278;28;20615;-58
2022/02/03 15:04:03;;;;;;;12.27;10.75;;;8.30;99.90;;;;;;5034266;28;20222;-58
2022/02/03 15:06:37;;;;;;;13.98;12.15;;;8.30;99.90;;;;;;5034127;28;20283;-58
2022/02/03 15:12:03;;;;;;;15.85;13.10;;;8.30;99.90;;;;;;5033660;28;20666;-58
2022/02/03 15:14:31;;;;;;;15.23;13.20;;;8.30;99.90;;;;;;5034178;28;20264;-58
2022/02/03 15:17:00;;;;;;;14.73;13.15;;;8.30;99.90;;;;;;5033578;28;20202;-57
2022/02/03 15:19:27;;;;;;;17.17;13.98;;;8.30;99.90;;;;;;5035010;28;20314;-58
2022/02/03 15:21:54;;;;;;;17.40;14.30;;;8.30;99.90;;;;;;5034691;28;20190;-58
2022/02/03 15:24:22;;;;;;;16.25;14.27;;;8.30;99.90;;;;;;5034461;28;20210;-57
2022/02/03 15:26:50;;;;;;;15.93;14.13;;;8.30;99.90;;;;;;5034863;28;20225;-57
2022/02/03 15:29:18;;;;;;;14.10;12.60;;;8.30;99.90;;;;;;5035025;28;20209;-57
2022/02/03 15:31:45;;;;;;;16.60;14.75;;;8.30;99.90;;;;;;5035005;28;20591;-57
2022/02/03 15:34:19;;;;;;;19.08;14.82;;;8.30;99.90;;;;;;5034818;28;20693;-58
2022/02/03 15:36:50;;;;;;;16.00;14.30;;;8.30;99.90;;;;;;5033701;28;20190;-58
2022/02/03 15:39:21;;;;;;;16.35;13.65;;;8.30;99.90;;;;;;5033583;28;20194;-58
2022/02/03 15:41:51;;;;;;;14.20;12.70;;;8.30;99.90;;;;;;5033516;28;20187;-58
2022/02/03 15:44:18;;;;;;;15.57;13.90;;;8.30;99.90;;;;;;5033975;28;20217;-57
2022/02/03 15:46:58;;;;;;;14.23;12.57;;;8.30;99.90;;;;;;5033559;28;20237;-58
2022/02/03 15:49:59;;;;;;;17.10;15.30;;;8.20;99.90;;;;;;5033330;28;22003;-58
2022/02/03 16:01:18;;;;;;;15.13;13.63;;;8.10;99.90;;;;;;5033817;28;20709;-58
2022/02/03 16:03:59;;;;;;;16.23;13.02;;;8.10;99.90;;;;;;5034276;28;20664;-58
2022/02/03 16:17:43;;;;;;;16.55;13.48;;;8.00;99.90;;;;;;5012997;28;20293;-58
2022/02/03 16:20:15;;;;;;;16.73;13.43;;;8.00;99.90;;;;;;5012683;28;20242;-58
2022/02/03 16:22:48;;;;;;;14.45;12.90;;;8.00;99.90;;;;;;5025920;28;20221;-58
2022/02/03 16:25:30;;;;;;;15.00;12.95;;;8.00;99.90;;;;;;5038188;28;20218;-58
2022/02/03 16:42:32;;;;;;;16.23;13.23;;;7.90;99.90;;;;;;5034914;28;20182;-57
2022/02/03 16:50:36;;;;;;;17.70;14.05;;;7.90;99.90;;;;;;5032750;28;20606;-58
2022/02/03 16:53:03;;;;;;;16.50;13.90;;;7.90;99.90;;;;;;5032642;28;20202;-57
2022/02/03 16:55:35;;;;;;;17.75;14.02;;;7.80;99.90;;;;;;5032309;28;20213;-58
2022/02/03 16:58:05;;;;;;;18.75;13.57;;;7.80;99.90;;;;;;5032933;28;20222;-58
2022/02/03 17:00:33;;;;;;;15.88;13.35;;;7.80;99.90;;;;;;5032604;28;20222;-58
2022/02/03 17:03:00;;;;;;;14.48;12.95;;;7.80;99.90;;;;;;5032519;28;20206;-56
2022/02/03 17:05:27;;;;;;;14.95;11.38;;;7.80;99.90;;;;;;5032707;28;20214;-56
2022/02/03 17:07:55;;;;;;;15.30;13.35;;;7.80;99.90;;;;;;5032730;28;20206;-56
2022/02/03 17:10:22;;;;;;;15.07;11.85;;;7.80;99.90;;;;;;5034096;28;20293;-56
2022/02/03 17:12:52;;;;;;;14.95;12.35;;;7.80;99.90;;;;;;5034323;28;20206;-57
2022/02/03 17:15:21;;;;;;;16.63;12.30;;;7.70;99.90;;;;;;5035136;28;20198;-56
2022/02/03 17:17:50;;;;;;;13.27;11.85;;;7.70;99.90;;;;;;5037802;28;20276;-57
2022/02/03 17:20:18;;;;;;;15.98;12.43;;;7.70;99.90;;;;;;5037753;28;20710;-55
2022/02/03 17:22:49;;;;;;;15.02;13.48;;;7.70;99.90;;;;;;5039144;28;20709;-55
2022/02/03 17:25:21;;;;;;;18.83;13.70;;;7.70;99.90;;;;;;5037800;28;20194;-56
2022/02/03 17:27:55;;;;;;;18.85;13.10;;;7.70;99.90;;;;;;5037453;28;20274;-56
2022/02/03 17:30:29;;;;;;;19.02;14.43;;;7.70;99.90;;;;;;5036743;28;20226;-56
2022/02/03 18:03:42;;;;;;;14.63;13.05;;;7.40;99.90;;;;;;5036486;28;20186;-56
2022/02/03 18:09:08;;;;;;;16.33;13.32;;;7.40;99.90;;;;;;5025439;28;20198;-56
2022/02/03 18:11:53;;;;;;;18.55;14.48;;;7.40;99.90;;;;;;5038892;28;20299;-56
2022/02/03 18:17:27;;;;;;;16.20;13.98;;;7.40;99.90;;;;;;5036368;28;20268;-57
2022/02/03 18:31:09;;;;;;;20.10;15.60;;;7.20;99.90;;;;;;5034603;28;20218;-56
2022/02/03 18:36:44;;;;;;;17.25;14.18;;;7.10;99.90;;;;;;5034829;28;20294;-56
2022/02/03 18:50:24;;;;;;;20.83;14.95;;;7.00;99.90;;;;;;5024899;28;20268;-56
2022/02/03 18:53:03;;;;;;;23.05;15.90;;;7.10;99.90;;;;;;5034412;28;20195;-56
2022/02/03 18:55:36;;;;;;;18.13;15.45;;;7.00;99.90;;;;;;5034340;28;20240;-56
2022/02/03 18:58:12;;;;;;;19.90;16.77;;;7.00;99.90;;;;;;5033932;28;20233;-56
2022/02/03 19:26:29;;;;;;;20.70;16.00;;;7.00;99.90;;;;;;5012185;28;20206;-56
2022/02/03 20:02:35;;;;;;;17.95;14.13;;;6.90;99.90;;;;;;5033384;28;20193;-56
2022/02/03 20:05:07;;;;;;;17.02;14.32;;;6.90;99.90;;;;;;5032831;28;20209;-56
2022/02/03 20:07:45;;;;;;;22.13;14.18;;;6.90;99.90;;;;;;5033003;28;20197;-56
2022/02/03 20:10:20;;;;;;;16.20;13.38;;;6.90;99.90;;;;;;5033455;28;20218;-57
2022/02/03 20:12:47;;;;;;;18.48;15.40;;;6.80;99.90;;;;;;5033438;28;20221;-56
2022/02/03 20:15:19;;;;;;;17.60;14.50;;;6.90;99.90;;;;;;5033345;28;20213;-57
2022/02/03 20:17:47;;;;;;;15.98;13.48;;;6.90;99.90;;;;;;5033950;28;20191;-57
2022/02/03 20:20:14;;;;;;;16.52;13.57;;;6.90;99.90;;;;;;5032864;28;20298;-57
2022/02/03 20:22:41;;;;;;;17.35;15.43;;;6.90;99.90;;;;;;5033032;28;20210;-57
2022/02/03 20:25:10;;;;;;;18.38;14.85;;;6.90;99.90;;;;;;5032842;28;20199;-56
2022/02/03 20:27:38;;;;;;;16.15;12.93;;;6.90;99.90;;;;;;5032718;28;20198;-57
2022/02/03 20:30:07;;;;;;;16.20;13.68;;;6.90;99.90;;;;;;5033042;28;20222;-56
2022/02/03 20:32:36;;;;;;;18.45;14.77;;;6.90;99.90;;;;;;5033144;28;20264;-56
2022/02/03 20:35:05;;;;;;;19.55;13.57;;;6.90;99.90;;;;;;5032683;28;20199;-57
2022/02/03 20:37:32;;;;;;;16.38;13.80;;;6.90;99.90;;;;;;5033196;28;20206;-56
2022/02/03 20:39:59;;;;;;;16.90;14.18;;;6.80;99.90;;;;;;5032726;28;20258;-58
2022/02/03 20:42:26;;;;;;;18.67;13.70;;;6.90;99.90;;;;;;5060753;22;20229;-61
2022/02/03 20:44:54;;;;;;;16.08;12.95;;;6.90;99.90;;;;;;5040695;28;20182;-62
2022/02/03 20:47:21;;;;;;;17.70;14.50;;;6.90;99.90;;;;;;5039781;28;20207;-63
2022/02/03 20:49:49;;;;;;;17.23;13.98;;;6.80;99.90;;;;;;5048655;28;20297;-62
2022/02/03 20:52:18;;;;;;;17.50;13.88;;;6.90;99.90;;;;;;5055024;28;20241;-63
2022/02/03 20:54:46;;;;;;;17.13;13.18;;;6.80;99.90;;;;;;5057959;28;20198;-63
2022/02/03 20:57:14;;;;;;;17.98;15.05;;;6.80;99.90;;;;;;5058951;28;20202;-63
2022/02/03 20:59:57;;;;;;;16.90;14.52;;;6.80;99.90;;;;;;5059796;28;20257;-63
2022/02/03 21:02:36;;;;;;;15.70;13.70;;;6.80;99.90;;;;;;5057258;28;20218;-63
2022/02/03 21:05:12;;;;;;;18.55;15.05;;;6.80;99.90;;;;;;5045118;28;20225;-63
2022/02/03 21:07:40;;;;;;;18.88;14.43;;;6.80;99.90;;;;;;5040420;28;20213;-63
2022/02/03 21:10:11;;;;;;;18.20;14.60;;;6.80;99.90;;;;;;5039803;28;20202;-62
2022/02/03 21:12:38;;;;;;;17.60;15.15;;;6.80;99.90;;;;;;5039664;28;20222;-62
2022/02/03 21:15:07;;;;;;;17.33;14.80;;;6.80;99.90;;;;;;5038483;28;20206;-63
2022/02/03 21:17:35;;;;;;;20.15;15.48;;;6.90;99.90;;;;;;5037846;28;20256;-63
2022/02/03 21:20:08;;;;;;;18.98;15.70;;;6.90;99.90;;;;;;5038425;28;20206;-61
2022/02/03 21:22:38;;;;;;;20.67;16.17;;;6.90;99.90;;;;;;5037460;28;20305;-62
2022/02/03 21:25:16;;;;;;;18.05;15.27;;;6.90;99.90;;;;;;5037275;28;20199;-62
2022/02/03 21:27:44;;;;;;;19.70;14.90;;;6.90;99.90;;;;;;5037477;28;20195;-63
2022/02/03 21:30:13;;;;;;;20.30;16.45;;;6.90;99.90;;;;;;5037213;28;20264;-63
2022/02/03 21:32:41;;;;;;;21.48;15.75;;;6.90;99.90;;;;;;5036680;28;20709;-63
2022/02/03 21:35:10;;;;;;;22.38;16.75;;;6.90;99.90;;;;;;5037133;28;20199;-63
2022/02/03 21:37:39;;;;;;;19.52;16.63;;;6.90;99.90;;;;;;5036652;28;20202;-63
2022/02/03 21:40:07;;;;;;;22.58;16.48;;;6.90;99.90;;;;;;5036294;28;20199;-62
2022/02/03 21:42:35;;;;;;;19.63;16.85;;;6.90;99.90;;;;;;5036066;28;20234;-62